createdAt,value
2018-05-09T00:00:21.406Z,3.33
2018-05-09T00:02:49.066Z,2.90
2018-05-09T00:05:16.680Z,3.13
2018-05-09T00:07:44.321Z,2.77
2018-05-09T00:10:11.980Z,3.07
2018-05-09T00:12:39.622Z,2.80
2018-05-09T00:15:07.246Z,2.83
2018-05-09T00:17:34.879Z,2.93
2018-05-09T00:20:02.540Z,2.37
2018-05-09T00:22:30.250Z,3.20
2018-05-09T00:24:57.912Z,2.90
2018-05-09T00:27:25.495Z,2.10
2018-05-09T00:29:53.087Z,3.07
2018-05-09T00:32:20.735Z,2.80
2018-05-09T00:34:48.405Z,2.23
2018-05-09T00:37:16.411Z,3.20
2018-05-09T00:39:44.043Z,2.90
2018-05-09T00:42:11.691Z,2.60
2018-05-09T00:44:39.341Z,2.77
2018-05-09T00:47:06.927Z,2.70
2018-05-09T00:49:34.585Z,2.60
2018-05-09T00:52:02.199Z,2.80
2018-05-09T00:54:33.593Z,2.90
2018-05-09T00:57:01.284Z,2.67
2018-05-09T00:59:29.018Z,2.80
2018-05-09T01:01:57.594Z,2.90
2018-05-09T01:04:25.203Z,3.50
2018-05-09T01:06:52.912Z,2.33
2018-05-09T01:09:20.546Z,2.80
2018-05-09T01:11:48.236Z,3.67
2018-05-09T01:14:15.847Z,2.77
2018-05-09T01:16:43.602Z,4.13
2018-05-09T01:19:11.260Z,5.00
2018-05-09T01:21:38.944Z,4.77
2018-05-09T01:24:06.618Z,5.40
2018-05-09T01:26:34.300Z,4.80
2018-05-09T01:29:02.373Z,3.27
2018-05-09T01:31:30.116Z,4.07
2018-05-09T01:33:57.736Z,3.00
2018-05-09T01:36:25.396Z,3.27
2018-05-09T01:38:52.984Z,4.70
2018-05-09T01:41:20.955Z,3.90
2018-05-09T01:43:48.687Z,3.40
2018-05-09T01:46:16.285Z,2.63
2018-05-09T01:48:43.940Z,3.20
2018-05-09T01:51:11.559Z,3.10
2018-05-09T01:53:39.171Z,3.80
2018-05-09T01:56:06.812Z,3.40
2018-05-09T01:58:34.447Z,3.80
2018-05-09T02:01:02.082Z,3.07
2018-05-09T02:03:29.709Z,2.90
2018-05-09T02:05:57.355Z,2.97
2018-05-09T02:08:24.951Z,2.47
2018-05-09T02:10:52.606Z,3.00
2018-05-09T02:13:20.192Z,2.23
2018-05-09T02:15:47.850Z,2.60
2018-05-09T02:18:15.451Z,3.00
2018-05-09T02:20:43.042Z,2.33
2018-05-09T02:23:10.698Z,2.27
2018-05-09T02:25:38.342Z,2.40
2018-05-09T02:28:05.941Z,1.90
2018-05-09T02:30:33.569Z,2.60
2018-05-09T02:33:01.201Z,3.30
2018-05-09T02:35:28.849Z,2.73
2018-05-09T02:37:56.523Z,2.60
2018-05-09T02:40:24.169Z,2.43
2018-05-09T02:42:51.788Z,3.83
2018-05-09T02:45:19.507Z,3.10
2018-05-09T02:47:47.159Z,3.70
2018-05-09T02:50:14.745Z,2.63
2018-05-09T02:52:42.373Z,2.30
2018-05-09T02:55:09.986Z,2.93
2018-05-09T02:57:37.610Z,3.17
2018-05-09T03:00:05.192Z,2.77
2018-05-09T03:02:32.788Z,3.70
2018-05-09T03:05:00.468Z,2.70
2018-05-09T03:07:28.062Z,2.93
2018-05-09T03:09:55.704Z,3.13
2018-05-09T03:12:23.306Z,3.10
2018-05-09T03:14:50.995Z,2.73
2018-05-09T03:17:18.803Z,2.90
2018-05-09T03:19:46.499Z,2.87
2018-05-09T03:22:14.101Z,2.90
2018-05-09T03:24:41.728Z,3.90
2018-05-09T03:27:09.770Z,3.60
2018-05-09T03:29:37.611Z,3.30
2018-05-09T03:32:05.249Z,3.20
2018-05-09T03:34:32.902Z,2.80
2018-05-09T03:37:00.540Z,2.73
2018-05-09T03:39:28.254Z,3.87
2018-05-09T03:41:55.893Z,3.60
2018-05-09T03:44:23.478Z,3.07
2018-05-09T03:46:51.282Z,3.60
2018-05-09T03:49:18.886Z,2.83
2018-05-09T03:51:46.582Z,3.80
2018-05-09T03:54:14.397Z,3.27
2018-05-09T03:56:42.097Z,3.10
2018-05-09T03:59:09.743Z,3.10
2018-05-09T04:01:49.177Z,3.30
2018-05-09T04:04:28.427Z,3.53
2018-05-09T04:07:07.793Z,3.27
2018-05-09T04:09:56.150Z,3.83
2018-05-09T04:12:24.671Z,3.90
2018-05-09T04:14:52.592Z,3.23
2018-05-09T04:17:20.269Z,3.20
2018-05-09T04:19:47.869Z,3.70
2018-05-09T04:22:15.518Z,4.07
2018-05-09T04:24:43.257Z,3.50
2018-05-09T04:27:10.886Z,4.67
2018-05-09T04:29:38.510Z,3.53
2018-05-09T04:32:06.116Z,4.30
2018-05-09T04:34:33.804Z,5.67
2018-05-09T04:37:01.430Z,6.60
2018-05-09T04:39:29.344Z,9.40
2018-05-09T04:41:56.999Z,6.53
2018-05-09T04:44:24.661Z,4.10
2018-05-09T04:46:52.352Z,3.93
2018-05-09T04:49:19.970Z,4.27
2018-05-09T04:51:47.609Z,4.70
2018-05-09T04:54:15.243Z,4.37
2018-05-09T04:56:42.903Z,4.80
2018-05-09T04:59:10.564Z,4.57
2018-05-09T05:01:38.230Z,5.00
2018-05-09T05:04:05.930Z,5.20
2018-05-09T05:06:33.583Z,4.90
2018-05-09T05:09:01.282Z,4.87
2018-05-09T05:11:28.873Z,4.47
2018-05-09T05:13:56.740Z,4.17
2018-05-09T05:16:24.345Z,5.97
2018-05-09T05:18:52.073Z,5.83
2018-05-09T05:21:19.718Z,4.60
2018-05-09T05:23:47.314Z,7.10
2018-05-09T05:26:14.994Z,7.10
2018-05-09T05:28:42.681Z,6.83
2018-05-09T05:31:10.440Z,6.53
2018-05-09T05:33:38.046Z,7.30
2018-05-09T05:36:05.730Z,5.23
2018-05-09T05:38:33.433Z,6.17
2018-05-09T05:41:01.033Z,5.83
2018-05-09T05:43:28.694Z,5.40
2018-05-09T05:45:56.323Z,6.23
2018-05-09T05:48:23.995Z,6.60
2018-05-09T05:50:51.651Z,6.27
2018-05-09T05:53:19.315Z,7.37
2018-05-09T05:55:46.925Z,6.40
2018-05-09T05:58:14.513Z,7.07
2018-05-09T06:00:42.163Z,6.50
2018-05-09T06:03:09.795Z,6.30
2018-05-09T06:05:37.538Z,5.70
2018-05-09T06:08:05.292Z,4.70
2018-05-09T06:10:32.913Z,4.53
2018-05-09T06:13:00.550Z,4.17
2018-05-09T06:15:28.230Z,4.10
2018-05-09T06:17:55.849Z,4.33
2018-05-09T06:20:23.486Z,4.37
2018-05-09T06:22:51.174Z,4.00
2018-05-09T06:25:18.795Z,4.87
2018-05-09T06:27:46.415Z,4.97
2018-05-09T06:30:14.071Z,4.07
2018-05-09T06:32:41.791Z,3.57
2018-05-09T06:35:09.426Z,3.93
2018-05-09T06:37:37.112Z,3.70
2018-05-09T06:40:04.794Z,4.00
2018-05-09T06:42:32.412Z,4.10
2018-05-09T06:45:00.019Z,3.80
2018-05-09T06:47:27.706Z,3.60
2018-05-09T06:49:55.505Z,3.87
2018-05-09T06:52:23.140Z,4.33
2018-05-09T06:54:50.726Z,4.23
2018-05-09T06:57:18.382Z,5.00
2018-05-09T06:59:46.316Z,4.60
2018-05-09T07:02:13.980Z,4.77
2018-05-09T07:04:41.588Z,4.80
2018-05-09T07:07:09.268Z,5.60
2018-05-09T07:09:36.928Z,6.57
2018-05-09T07:12:04.658Z,5.57
2018-05-09T07:14:32.241Z,5.57
2018-05-09T07:16:59.905Z,5.73
2018-05-09T07:19:27.531Z,5.60
2018-05-09T07:21:55.131Z,4.63
2018-05-09T07:24:22.763Z,4.50
2018-05-09T07:26:50.352Z,4.70
2018-05-09T07:29:18.068Z,6.50
2018-05-09T07:31:45.906Z,4.03
2018-05-09T07:34:13.570Z,3.70
2018-05-09T07:36:41.181Z,3.03
2018-05-09T07:39:08.836Z,2.90
2018-05-09T07:41:36.427Z,3.10
2018-05-09T07:44:04.106Z,4.50
2018-05-09T07:46:31.757Z,6.53
2018-05-09T07:48:59.444Z,5.67
2018-05-09T07:51:28.247Z,6.50
2018-05-09T07:53:55.915Z,6.13
2018-05-09T07:56:23.593Z,5.47
2018-05-09T07:58:51.249Z,5.80
2018-05-09T08:01:18.847Z,5.47
2018-05-09T08:03:46.476Z,5.63
2018-05-09T08:06:14.138Z,5.30
2018-05-09T08:08:41.757Z,5.63
2018-05-09T08:11:09.510Z,7.27
2018-05-09T08:13:37.224Z,6.93
2018-05-09T08:16:04.900Z,4.70
2018-05-09T08:18:32.498Z,6.07
2018-05-09T08:21:00.118Z,6.30
2018-05-09T08:23:27.756Z,6.20
2018-05-09T08:25:55.431Z,6.13
2018-05-09T08:28:23.129Z,5.17
2018-05-09T08:30:50.787Z,5.43
2018-05-09T08:33:18.452Z,5.20
2018-05-09T08:35:46.699Z,5.27
2018-05-09T08:38:14.383Z,5.17
2018-05-09T08:40:42.016Z,6.53
2018-05-09T08:43:09.678Z,7.10
2018-05-09T08:45:37.392Z,6.70
2018-05-09T08:48:05.040Z,5.27
2018-05-09T08:50:32.745Z,6.27
2018-05-09T08:53:00.328Z,4.47
2018-05-09T08:55:27.996Z,3.63
2018-05-09T08:57:55.672Z,3.57
2018-05-09T09:00:23.260Z,5.70
2018-05-09T09:02:50.929Z,4.70
2018-05-09T09:05:18.546Z,4.40
2018-05-09T09:07:46.192Z,4.43
2018-05-09T09:10:13.789Z,4.60
2018-05-09T09:12:41.537Z,3.50
2018-05-09T09:15:09.148Z,3.80
2018-05-09T09:17:36.819Z,3.10
2018-05-09T09:20:04.546Z,4.23
2018-05-09T09:22:32.195Z,4.60
2018-05-09T09:25:00.641Z,5.50
2018-05-09T09:27:28.328Z,5.43
2018-05-09T09:29:56.279Z,5.23
2018-05-09T09:32:23.982Z,5.60
2018-05-09T09:34:51.657Z,6.10
2018-05-09T09:37:19.303Z,5.20
2018-05-09T09:39:46.934Z,4.57
2018-05-09T09:42:14.897Z,4.83
2018-05-09T09:47:16.342Z,5.07
2018-05-09T09:49:43.986Z,5.47
2018-05-09T09:52:11.796Z,5.57
2018-05-09T09:54:39.392Z,6.40
2018-05-09T09:57:07.022Z,5.20
2018-05-09T09:59:35.340Z,6.00
2018-05-09T10:02:02.985Z,5.33
2018-05-09T10:04:30.638Z,6.00
2018-05-09T10:06:58.314Z,5.70
2018-05-09T10:09:26.837Z,7.00
2018-05-09T10:11:54.488Z,5.20
2018-05-09T10:14:22.167Z,5.70
2018-05-09T10:16:49.780Z,6.00
2018-05-09T10:19:17.608Z,5.17
2018-05-09T10:21:45.201Z,5.20
2018-05-09T10:24:12.839Z,5.17
2018-05-09T10:26:40.525Z,5.23
2018-05-09T10:29:08.127Z,4.87
2018-05-09T10:31:35.841Z,5.20
2018-05-09T10:34:03.493Z,5.30
2018-05-09T10:36:31.141Z,6.20
2018-05-09T10:38:58.743Z,4.93
2018-05-09T10:41:26.457Z,3.30
2018-05-09T10:43:54.045Z,3.10
2018-05-09T10:46:21.695Z,3.00
2018-05-09T10:48:49.363Z,3.30
2018-05-09T10:51:17.040Z,3.80
2018-05-09T10:53:44.673Z,3.57
2018-05-09T10:56:12.351Z,3.20
2018-05-09T10:58:40.040Z,3.80
2018-05-09T11:01:07.717Z,3.83
2018-05-09T11:03:35.875Z,3.17
2018-05-09T11:06:03.540Z,2.80
2018-05-09T11:08:31.199Z,2.33
2018-05-09T11:10:59.346Z,2.47
2018-05-09T11:13:27.008Z,2.90
2018-05-09T11:15:54.965Z,2.30
2018-05-09T11:18:22.948Z,2.13
2018-05-09T11:20:50.667Z,2.83
2018-05-09T11:23:18.295Z,2.20
2018-05-09T11:25:45.977Z,2.10
2018-05-09T11:28:13.650Z,2.40
2018-05-09T11:30:41.308Z,2.40
2018-05-09T11:33:08.957Z,1.60
2018-05-09T11:35:36.623Z,2.30
2018-05-09T11:38:04.243Z,2.30
2018-05-09T11:40:31.891Z,1.90
2018-05-09T11:42:59.569Z,2.30
2018-05-09T11:45:27.351Z,2.00
2018-05-09T11:47:55.120Z,2.07
2018-05-09T11:50:22.736Z,1.87
2018-05-09T11:52:50.457Z,2.50
2018-05-09T11:55:18.109Z,2.10
2018-05-09T11:57:45.787Z,2.87
2018-05-09T12:00:13.415Z,2.30
2018-05-09T12:02:41.098Z,2.37
2018-05-09T12:05:08.767Z,2.47
2018-05-09T12:07:36.413Z,3.00
2018-05-09T12:10:04.178Z,2.10
2018-05-09T12:12:31.784Z,2.00
2018-05-09T12:15:00.337Z,2.90
2018-05-09T12:17:27.941Z,2.23
2018-05-09T12:19:56.477Z,2.17
2018-05-09T12:22:24.182Z,2.40
2018-05-09T12:24:51.865Z,2.50
2018-05-09T12:27:19.662Z,2.63
2018-05-09T12:29:47.324Z,2.60
2018-05-09T12:32:14.978Z,2.50
2018-05-09T12:34:42.581Z,2.50
2018-05-09T12:37:10.211Z,3.07
2018-05-09T12:39:37.904Z,2.47
2018-05-09T12:42:05.520Z,3.10
2018-05-09T12:44:34.059Z,2.63
2018-05-09T12:47:01.935Z,2.50
2018-05-09T12:49:30.192Z,2.00
2018-05-09T12:51:58.214Z,1.83
2018-05-09T12:54:26.270Z,2.10
2018-05-09T12:56:54.152Z,2.87
2018-05-09T12:59:21.966Z,2.30
2018-05-09T13:01:49.875Z,2.30
2018-05-09T13:04:17.829Z,2.43
2018-05-09T13:06:45.920Z,2.00
2018-05-09T13:09:15.011Z,2.03
2018-05-09T13:11:42.905Z,2.20
2018-05-09T13:14:10.631Z,2.10
2018-05-09T13:16:39.017Z,2.20
2018-05-09T13:19:07.647Z,1.50
2018-05-09T13:21:36.218Z,1.77
2018-05-09T13:24:03.881Z,2.30
2018-05-09T13:26:31.732Z,2.00
2018-05-09T13:28:59.954Z,1.63
2018-05-09T13:31:28.217Z,2.10
2018-05-09T13:33:56.559Z,1.73
2018-05-09T13:36:24.383Z,2.00
2018-05-09T13:38:52.180Z,2.17
2018-05-09T13:41:19.975Z,2.70
2018-05-09T13:43:47.636Z,1.70
2018-05-09T13:46:15.506Z,1.60
2018-05-09T13:48:43.371Z,2.00
2018-05-09T13:51:11.032Z,1.77
2018-05-09T13:53:38.699Z,2.20
2018-05-09T13:56:06.365Z,1.53
2018-05-09T13:58:34.024Z,1.90
2018-05-09T14:01:01.647Z,2.00
2018-05-09T14:03:29.526Z,2.37
2018-05-09T14:05:57.199Z,1.70
2018-05-09T14:08:24.853Z,1.67
2018-05-09T14:10:52.569Z,1.67
2018-05-09T14:13:20.420Z,1.53
2018-05-09T14:15:48.139Z,1.90
2018-05-09T14:18:18.606Z,1.77
2018-05-09T14:20:46.276Z,1.90
2018-05-09T14:23:14.266Z,3.57
2018-05-09T14:25:42.538Z,1.37
2018-05-09T14:28:10.229Z,1.23
2018-05-09T14:30:37.937Z,1.50
2018-05-09T14:33:05.601Z,2.00
2018-05-09T14:35:34.275Z,1.63
2018-05-09T14:38:02.167Z,1.70
2018-05-09T14:40:29.822Z,1.73
2018-05-09T14:42:57.474Z,1.80
2018-05-09T14:45:25.192Z,1.53
2018-05-09T14:47:52.843Z,1.97
2018-05-09T14:50:20.468Z,2.20
2018-05-09T14:52:48.136Z,1.80
2018-05-09T14:55:15.742Z,2.00
2018-05-09T14:57:43.396Z,1.60
2018-05-09T15:00:11.097Z,2.30
2018-05-09T15:02:38.743Z,1.70
2018-05-09T15:05:06.986Z,2.20
2018-05-09T15:07:34.634Z,2.00
2018-05-09T15:10:02.271Z,1.87
2018-05-09T15:12:29.960Z,2.00
2018-05-09T15:14:57.666Z,2.00
2018-05-09T15:17:25.270Z,1.97
2018-05-09T15:19:52.933Z,2.20
2018-05-09T15:22:20.566Z,2.03
2018-05-09T15:24:48.272Z,1.67
2018-05-09T15:27:15.903Z,1.93
2018-05-09T15:29:43.661Z,1.70
2018-05-09T15:32:11.455Z,1.80
2018-05-09T15:34:39.160Z,1.63
2018-05-09T15:37:06.877Z,2.10
2018-05-09T15:39:34.551Z,1.97
2018-05-09T15:42:02.217Z,1.87
2018-05-09T15:44:29.827Z,1.90
2018-05-09T15:46:57.489Z,2.17
2018-05-09T15:49:25.127Z,2.60
2018-05-09T15:51:52.839Z,3.07
2018-05-09T15:54:20.527Z,3.60
2018-05-09T15:56:48.134Z,3.17
2018-05-09T15:59:15.859Z,3.90
2018-05-09T16:01:43.526Z,2.17
2018-05-09T16:04:11.383Z,2.17
2018-05-09T16:06:39.055Z,3.17
2018-05-09T16:09:06.695Z,2.43
2018-05-09T16:11:34.405Z,1.80
2018-05-09T16:14:02.050Z,2.20
2018-05-09T16:16:29.800Z,2.40
2018-05-09T16:18:57.551Z,1.77
2018-05-09T16:21:25.245Z,2.30
2018-05-09T16:23:52.959Z,1.83
2018-05-09T16:26:20.647Z,2.67
2018-05-09T16:28:48.487Z,2.00
2018-05-09T16:31:17.428Z,2.70
2018-05-09T16:33:45.193Z,2.70
2018-05-09T16:36:14.050Z,2.23
2018-05-09T16:38:41.827Z,2.63
2018-05-09T16:41:10.319Z,2.33
2018-05-09T16:43:38.001Z,2.53
2018-05-09T16:46:06.562Z,2.33
2018-05-09T16:48:34.350Z,2.20
2018-05-09T16:51:02.061Z,2.07
2018-05-09T16:53:29.690Z,2.30
2018-05-09T16:55:57.400Z,2.13
2018-05-09T16:58:25.118Z,2.37
2018-05-09T17:00:52.962Z,1.97
2018-05-09T17:03:20.645Z,2.47
2018-05-09T17:05:48.566Z,2.37
2018-05-09T17:08:16.631Z,2.07
2018-05-09T17:10:44.261Z,1.87
2018-05-09T17:13:11.974Z,2.33
2018-05-09T17:15:39.668Z,2.20
2018-05-09T17:18:07.333Z,2.27
2018-05-09T17:20:34.985Z,3.67
2018-05-09T17:23:02.706Z,3.37
2018-05-09T17:25:30.404Z,3.00
2018-05-09T17:27:58.089Z,2.17
2018-05-09T17:30:25.795Z,1.83
2018-05-09T17:32:53.451Z,2.67
2018-05-09T17:35:21.042Z,1.80
2018-05-09T17:37:48.691Z,2.10
2018-05-09T17:40:16.356Z,2.00
2018-05-09T17:42:44.302Z,2.30
2018-05-09T17:45:11.929Z,2.47
2018-05-09T17:47:39.626Z,2.07
2018-05-09T17:50:07.401Z,2.50
2018-05-09T17:52:35.147Z,2.40
2018-05-09T17:55:02.861Z,1.80
2018-05-09T17:57:30.542Z,2.10
2018-05-09T17:59:59.336Z,2.67
2018-05-09T18:02:26.993Z,1.67
2018-05-09T18:04:54.668Z,2.33
2018-05-09T18:07:22.317Z,2.70
2018-05-09T18:09:50.108Z,2.30
2018-05-09T18:12:17.764Z,2.60
2018-05-09T18:14:45.476Z,2.20
2018-05-09T18:17:15.054Z,2.10
2018-05-09T18:19:42.697Z,2.37
2018-05-09T18:22:10.503Z,2.37
2018-05-09T18:24:39.431Z,2.87
2018-05-09T18:27:07.119Z,2.20
2018-05-09T18:29:34.842Z,2.43
2018-05-09T18:32:02.509Z,1.87
2018-05-09T18:34:30.402Z,2.27
2018-05-09T18:36:58.975Z,2.30
2018-05-09T18:39:28.994Z,2.30
2018-05-09T18:41:57.601Z,2.40
2018-05-09T18:44:26.205Z,3.23
2018-05-09T18:46:55.339Z,3.00
2018-05-09T18:49:23.989Z,2.43
2018-05-09T18:51:52.586Z,2.63
2018-05-09T18:54:21.873Z,1.30
2018-05-09T18:56:51.111Z,2.73
2018-05-09T18:59:19.352Z,2.70
2018-05-09T19:01:47.455Z,2.97
2018-05-09T19:04:15.515Z,2.37
2018-05-09T19:06:44.731Z,2.47
2018-05-09T19:09:15.447Z,2.50
2018-05-09T19:11:43.620Z,1.93
2018-05-09T19:14:11.408Z,2.17
2018-05-09T19:16:39.350Z,3.00
2018-05-09T19:19:06.957Z,2.60
2018-05-09T19:21:34.788Z,2.83
2018-05-09T19:24:02.481Z,2.80
2018-05-09T19:26:30.833Z,2.50
2018-05-09T19:28:58.492Z,2.10
2018-05-09T19:31:26.747Z,2.80
2018-05-09T19:33:54.422Z,2.33
2018-05-09T19:36:22.142Z,2.13
2018-05-09T19:38:50.384Z,2.60
2018-05-09T19:41:19.071Z,2.60
2018-05-09T19:43:46.855Z,3.57
2018-05-09T19:46:14.748Z,2.50
2018-05-09T19:48:42.512Z,2.57
2018-05-09T19:51:10.386Z,3.20
2018-05-09T19:53:39.205Z,2.60
2018-05-09T19:56:07.092Z,2.50
2018-05-09T19:58:34.932Z,2.90
2018-05-09T20:01:02.902Z,3.03
2018-05-09T20:03:33.503Z,2.40
2018-05-09T20:06:01.544Z,2.80
2018-05-09T20:08:30.902Z,3.00
2018-05-09T20:10:58.893Z,2.87
2018-05-09T20:13:27.649Z,2.53
2018-05-09T20:15:55.424Z,2.47
2018-05-09T20:18:23.113Z,3.17
2018-05-09T20:20:50.811Z,3.60
2018-05-09T20:23:18.607Z,2.80
2018-05-09T20:25:46.223Z,3.30
2018-05-09T20:28:13.875Z,2.70
2018-05-09T20:30:46.916Z,3.80
2018-05-09T20:33:14.685Z,3.40
2018-05-09T20:35:42.344Z,2.93
2018-05-09T20:38:09.959Z,3.40
2018-05-09T20:40:37.632Z,2.60
2018-05-09T20:43:05.367Z,3.07
2018-05-09T20:45:32.998Z,3.30
2018-05-09T20:48:00.664Z,3.20
2018-05-09T20:50:28.332Z,3.13
2018-05-09T20:52:55.964Z,2.70
2018-05-09T20:55:28.587Z,2.50
2018-05-09T20:57:56.265Z,2.90
2018-05-09T21:00:23.914Z,3.97
2018-05-09T21:02:51.516Z,3.37
2018-05-09T21:05:19.231Z,3.30
2018-05-09T21:07:56.799Z,2.80
2018-05-09T21:10:25.553Z,2.80
2018-05-09T21:12:53.328Z,3.23
2018-05-09T21:15:21.065Z,2.60
2018-05-09T21:17:48.647Z,3.30
2018-05-09T21:20:16.387Z,3.03
2018-05-09T21:22:44.025Z,3.37
2018-05-09T21:25:11.661Z,2.70
2018-05-09T21:27:39.385Z,3.33
2018-05-09T21:30:07.977Z,2.67
2018-05-09T21:32:36.830Z,3.47
2018-05-09T21:35:04.482Z,3.90
2018-05-09T21:37:32.171Z,2.67
2018-05-09T21:39:59.807Z,3.40
2018-05-09T21:42:27.384Z,3.20
2018-05-09T21:44:55.123Z,4.30
2018-05-09T21:47:22.806Z,3.40
2018-05-09T21:49:50.598Z,2.90
2018-05-09T21:52:18.250Z,2.90
2018-05-09T21:54:45.859Z,3.10
2018-05-09T21:57:13.511Z,3.43
2018-05-09T21:59:41.143Z,3.40
2018-05-09T22:02:08.788Z,3.70
2018-05-09T22:04:36.426Z,2.87
2018-05-09T22:07:04.076Z,2.53
2018-05-09T22:09:31.717Z,3.87
2018-05-09T22:11:59.327Z,4.00
2018-05-09T22:14:26.962Z,3.50
2018-05-09T22:16:54.691Z,3.70
2018-05-09T22:19:22.332Z,3.33
2018-05-09T22:21:49.980Z,3.60
2018-05-09T22:24:17.619Z,3.50
2018-05-09T22:26:45.292Z,3.20
2018-05-09T22:29:12.990Z,3.60
2018-05-09T22:31:40.589Z,3.90
2018-05-09T22:34:08.227Z,2.83
2018-05-09T22:36:35.924Z,3.13
2018-05-09T22:39:03.713Z,4.17
2018-05-09T22:41:32.086Z,3.00
2018-05-09T22:43:59.749Z,3.77
2018-05-09T22:46:27.376Z,3.23
2018-05-09T22:48:54.990Z,4.23
2018-05-09T22:51:22.661Z,3.67
2018-05-09T22:53:50.247Z,3.73
2018-05-09T22:56:17.881Z,4.20
2018-05-09T22:58:45.553Z,4.40
2018-05-09T23:01:13.272Z,5.33
2018-05-09T23:03:40.941Z,3.50
2018-05-09T23:06:08.663Z,3.13
2018-05-09T23:08:36.361Z,3.93
2018-05-09T23:11:03.987Z,3.10
2018-05-09T23:13:31.573Z,3.97
2018-05-09T23:15:59.222Z,3.80
2018-05-09T23:18:26.901Z,4.00
2018-05-09T23:20:54.588Z,3.17
2018-05-09T23:23:22.235Z,3.40
2018-05-09T23:25:50.095Z,3.20
2018-05-09T23:28:17.756Z,4.30
2018-05-09T23:30:45.562Z,3.40
2018-05-09T23:33:13.162Z,3.70
2018-05-09T23:35:40.827Z,3.83
2018-05-09T23:38:08.465Z,3.77
2018-05-09T23:40:36.128Z,4.10
2018-05-09T23:43:03.830Z,3.50
2018-05-09T23:45:31.493Z,3.20
2018-05-09T23:47:59.146Z,3.53
2018-05-09T23:50:26.807Z,3.90
2018-05-09T23:52:54.477Z,3.50
2018-05-09T23:55:22.124Z,3.63
2018-05-09T23:57:49.859Z,4.03
